sensor_id;sensor_type;location;lat;lon;timestamp;P1;durP1;ratioP1;P2;durP2;ratioP2
18973;SDS011;9621;48.690;9.466;2023-04-06T00:01:00;13.90;;;8.93;;
18973;SDS011;9621;48.690;9.466;2023-04-06T00:03:27;16.30;;;10.20;;
18973;SDS011;9621;48.690;9.466;2023-04-06T00:05:55;13.03;;;9.37;;
18973;SDS011;9621;48.690;9.466;2023-04-06T00:08:22;16.97;;;10.07;;
18973;SDS011;9621;48.690;9.466;2023-04-06T00:10:49;16.43;;;10.27;;
18973;SDS011;9621;48.690;9.466;2023-04-06T00:13:17;18.93;;;9.83;;
18973;SDS011;9621;48.690;9.466;2023-04-06T00:15:44;15.87;;;10.50;;
18973;SDS011;9621;48.690;9.466;2023-04-06T00:18:11;18.87;;;10.00;;
18973;SDS011;9621;48.690;9.466;2023-04-06T00:20:39;17.97;;;9.77;;
18973;SDS011;9621;48.690;9.466;2023-04-06T00:23:06;18.30;;;10.07;;
18973;SDS011;9621;48.690;9.466;2023-04-06T00:25:33;15.30;;;9.50;;
18973;SDS011;9621;48.690;9.466;2023-04-06T00:28:00;17.13;;;10.97;;
18973;SDS011;9621;48.690;9.466;2023-04-06T00:30:29;15.90;;;10.40;;
18973;SDS011;9621;48.690;9.466;2023-04-06T00:32:56;15.20;;;11.03;;
18973;SDS011;9621;48.690;9.466;2023-04-06T00:35:23;18.13;;;10.67;;
18973;SDS011;9621;48.690;9.466;2023-04-06T00:37:51;15.60;;;10.73;;
18973;SDS011;9621;48.690;9.466;2023-04-06T00:40:18;16.67;;;10.37;;
18973;SDS011;9621;48.690;9.466;2023-04-06T00:42:45;17.13;;;9.97;;
18973;SDS011;9621;48.690;9.466;2023-04-06T00:45:12;18.93;;;11.47;;
18973;SDS011;9621;48.690;9.466;2023-04-06T00:47:40;16.17;;;9.57;;
18973;SDS011;9621;48.690;9.466;2023-04-06T00:50:08;17.93;;;10.63;;
18973;SDS011;9621;48.690;9.466;2023-04-06T00:52:35;18.73;;;10.67;;
18973;SDS011;9621;48.690;9.466;2023-04-06T00:55:02;19.50;;;11.37;;
18973;SDS011;9621;48.690;9.466;2023-04-06T00:57:30;16.67;;;11.23;;
18973;SDS011;9621;48.690;9.466;2023-04-06T00:59:58;20.17;;;11.77;;
18973;SDS011;9621;48.690;9.466;2023-04-06T01:02:25;20.53;;;10.40;;
18973;SDS011;9621;48.690;9.466;2023-04-06T01:04:53;22.00;;;9.80;;
18973;SDS011;9621;48.690;9.466;2023-04-06T01:07:21;17.90;;;10.83;;
18973;SDS011;9621;48.690;9.466;2023-04-06T01:09:48;20.43;;;11.27;;
18973;SDS011;9621;48.690;9.466;2023-04-06T01:12:15;20.07;;;11.03;;
18973;SDS011;9621;48.690;9.466;2023-04-06T01:14:42;16.47;;;10.80;;
18973;SDS011;9621;48.690;9.466;2023-04-06T01:17:09;15.47;;;11.03;;
18973;SDS011;9621;48.690;9.466;2023-04-06T01:19:36;16.97;;;9.63;;
18973;SDS011;9621;48.690;9.466;2023-04-06T01:22:06;16.70;;;10.70;;
18973;SDS011;9621;48.690;9.466;2023-04-06T01:24:35;15.53;;;11.27;;
18973;SDS011;9621;48.690;9.466;2023-04-06T01:27:02;18.43;;;11.83;;
18973;SDS011;9621;48.690;9.466;2023-04-06T01:29:29;15.40;;;10.83;;
18973;SDS011;9621;48.690;9.466;2023-04-06T01:31:56;16.33;;;11.10;;
18973;SDS011;9621;48.690;9.466;2023-04-06T01:34:22;18.23;;;10.97;;
18973;SDS011;9621;48.690;9.466;2023-04-06T01:36:49;17.30;;;11.27;;
18973;SDS011;9621;48.690;9.466;2023-04-06T01:39:17;19.50;;;11.97;;
18973;SDS011;9621;48.690;9.466;2023-04-06T01:41:45;18.40;;;11.27;;
18973;SDS011;9621;48.690;9.466;2023-04-06T01:44:16;19.63;;;11.37;;
18973;SDS011;9621;48.690;9.466;2023-04-06T01:46:43;16.10;;;11.03;;
18973;SDS011;9621;48.690;9.466;2023-04-06T01:49:11;20.37;;;12.17;;
18973;SDS011;9621;48.690;9.466;2023-04-06T01:51:38;16.50;;;10.83;;
18973;SDS011;9621;48.690;9.466;2023-04-06T01:54:05;22.90;;;11.73;;
18973;SDS011;9621;48.690;9.466;2023-04-06T01:56:32;23.83;;;11.60;;
18973;SDS011;9621;48.690;9.466;2023-04-06T01:59:01;18.17;;;11.80;;
18973;SDS011;9621;48.690;9.466;2023-04-06T02:01:28;17.77;;;11.03;;
18973;SDS011;9621;48.690;9.466;2023-04-06T02:03:55;17.57;;;11.63;;
18973;SDS011;9621;48.690;9.466;2023-04-06T02:06:21;16.37;;;10.27;;
18973;SDS011;9621;48.690;9.466;2023-04-06T02:08:48;17.83;;;11.27;;
18973;SDS011;9621;48.690;9.466;2023-04-06T02:11:15;19.27;;;11.23;;
18973;SDS011;9621;48.690;9.466;2023-04-06T02:13:42;18.77;;;11.37;;
18973;SDS011;9621;48.690;9.466;2023-04-06T02:16:11;17.63;;;12.03;;
18973;SDS011;9621;48.690;9.466;2023-04-06T02:18:38;17.07;;;11.50;;
18973;SDS011;9621;48.690;9.466;2023-04-06T02:21:05;21.13;;;11.37;;
18973;SDS011;9621;48.690;9.466;2023-04-06T02:23:32;19.70;;;12.00;;
18973;SDS011;9621;48.690;9.466;2023-04-06T02:25:59;20.73;;;12.20;;
18973;SDS011;9621;48.690;9.466;2023-04-06T02:28:26;20.43;;;12.77;;
18973;SDS011;9621;48.690;9.466;2023-04-06T02:30:52;23.30;;;11.80;;
18973;SDS011;9621;48.690;9.466;2023-04-06T02:33:21;17.73;;;12.03;;
18973;SDS011;9621;48.690;9.466;2023-04-06T02:35:48;17.93;;;11.93;;
18973;SDS011;9621;48.690;9.466;2023-04-06T02:38:15;21.03;;;12.13;;
18973;SDS011;9621;48.690;9.466;2023-04-06T02:40:42;19.90;;;12.77;;
18973;SDS011;9621;48.690;9.466;2023-04-06T02:43:09;17.77;;;11.63;;
18973;SDS011;9621;48.690;9.466;2023-04-06T02:45:36;16.90;;;10.90;;
18973;SDS011;9621;48.690;9.466;2023-04-06T02:48:03;20.57;;;12.67;;
18973;SDS011;9621;48.690;9.466;2023-04-06T02:50:32;16.60;;;11.20;;
18973;SDS011;9621;48.690;9.466;2023-04-06T02:52:59;19.73;;;11.93;;
18973;SDS011;9621;48.690;9.466;2023-04-06T02:55:26;19.67;;;12.93;;
18973;SDS011;9621;48.690;9.466;2023-04-06T02:57:53;17.13;;;11.50;;
18973;SDS011;9621;48.690;9.466;2023-04-06T03:00:20;16.80;;;11.93;;
18973;SDS011;9621;48.690;9.466;2023-04-06T03:02:47;23.57;;;12.80;;
18973;SDS011;9621;48.690;9.466;2023-04-06T03:05:14;20.03;;;12.00;;
18973;SDS011;9621;48.690;9.466;2023-04-06T03:07:42;20.10;;;11.43;;
18973;SDS011;9621;48.690;9.466;2023-04-06T03:10:10;18.57;;;11.57;;
18973;SDS011;9621;48.690;9.466;2023-04-06T03:12:37;21.83;;;12.53;;
18973;SDS011;9621;48.690;9.466;2023-04-06T03:15:07;17.67;;;11.47;;
18973;SDS011;9621;48.690;9.466;2023-04-06T03:17:34;18.20;;;11.57;;
18973;SDS011;9621;48.690;9.466;2023-04-06T03:20:02;18.07;;;12.47;;
18973;SDS011;9621;48.690;9.466;2023-04-06T03:22:29;15.80;;;10.80;;
18973;SDS011;9621;48.690;9.466;2023-04-06T03:24:57;16.47;;;11.23;;
18973;SDS011;9621;48.690;9.466;2023-04-06T03:27:24;16.33;;;11.73;;
18973;SDS011;9621;48.690;9.466;2023-04-06T03:29:51;18.10;;;11.67;;
18973;SDS011;9621;48.690;9.466;2023-04-06T03:32:18;21.33;;;12.67;;
18973;SDS011;9621;48.690;9.466;2023-04-06T03:34:45;18.13;;;12.03;;
18973;SDS011;9621;48.690;9.466;2023-04-06T03:37:12;20.30;;;11.83;;
18973;SDS011;9621;48.690;9.466;2023-04-06T03:39:39;20.77;;;12.90;;
18973;SDS011;9621;48.690;9.466;2023-04-06T03:42:07;19.77;;;13.10;;
18973;SDS011;9621;48.690;9.466;2023-04-06T03:44:34;21.50;;;12.30;;
18973;SDS011;9621;48.690;9.466;2023-04-06T03:47:01;16.83;;;12.10;;
18973;SDS011;9621;48.690;9.466;2023-04-06T03:49:29;17.70;;;12.03;;
18973;SDS011;9621;48.690;9.466;2023-04-06T03:51:56;17.43;;;12.07;;
18973;SDS011;9621;48.690;9.466;2023-04-06T03:54:23;17.13;;;11.67;;
18973;SDS011;9621;48.690;9.466;2023-04-06T03:56:50;20.03;;;12.63;;
18973;SDS011;9621;48.690;9.466;2023-04-06T03:59:18;16.70;;;11.67;;
18973;SDS011;9621;48.690;9.466;2023-04-06T04:01:45;17.97;;;12.33;;
18973;SDS011;9621;48.690;9.466;2023-04-06T04:04:12;19.80;;;12.77;;
18973;SDS011;9621;48.690;9.466;2023-04-06T04:06:39;17.80;;;12.20;;
18973;SDS011;9621;48.690;9.466;2023-04-06T04:09:06;17.93;;;11.37;;
18973;SDS011;9621;48.690;9.466;2023-04-06T04:11:33;19.40;;;12.30;;
18973;SDS011;9621;48.690;9.466;2023-04-06T04:14:00;21.97;;;13.00;;
18973;SDS011;9621;48.690;9.466;2023-04-06T04:16:29;18.17;;;12.67;;
18973;SDS011;9621;48.690;9.466;2023-04-06T04:18:56;17.57;;;11.90;;
18973;SDS011;9621;48.690;9.466;2023-04-06T04:21:23;18.43;;;12.00;;
18973;SDS011;9621;48.690;9.466;2023-04-06T04:23:51;21.23;;;12.77;;
18973;SDS011;9621;48.690;9.466;2023-04-06T04:26:18;21.07;;;12.37;;
18973;SDS011;9621;48.690;9.466;2023-04-06T04:28:46;18.90;;;11.83;;
18973;SDS011;9621;48.690;9.466;2023-04-06T04:31:13;20.23;;;12.57;;
18973;SDS011;9621;48.690;9.466;2023-04-06T04:33:41;22.43;;;13.33;;
18973;SDS011;9621;48.690;9.466;2023-04-06T04:36:08;20.73;;;13.67;;
18973;SDS011;9621;48.690;9.466;2023-04-06T04:38:36;21.50;;;13.13;;
18973;SDS011;9621;48.690;9.466;2023-04-06T04:41:03;19.47;;;13.37;;
18973;SDS011;9621;48.690;9.466;2023-04-06T04:43:30;19.60;;;13.20;;
18973;SDS011;9621;48.690;9.466;2023-04-06T04:45:57;20.47;;;13.00;;
18973;SDS011;9621;48.690;9.466;2023-04-06T04:48:24;19.30;;;12.70;;
18973;SDS011;9621;48.690;9.466;2023-04-06T04:50:53;18.83;;;12.70;;
18973;SDS011;9621;48.690;9.466;2023-04-06T04:53:20;21.00;;;13.43;;
18973;SDS011;9621;48.690;9.466;2023-04-06T04:55:47;20.50;;;14.03;;
18973;SDS011;9621;48.690;9.466;2023-04-06T04:58:14;20.73;;;12.77;;
18973;SDS011;9621;48.690;9.466;2023-04-06T05:00:42;21.73;;;13.90;;
18973;SDS011;9621;48.690;9.466;2023-04-06T05:03:08;20.53;;;13.97;;
18973;SDS011;9621;48.690;9.466;2023-04-06T05:05:38;18.93;;;12.83;;
18973;SDS011;9621;48.690;9.466;2023-04-06T05:08:06;22.30;;;14.37;;
18973;SDS011;9621;48.690;9.466;2023-04-06T05:10:34;25.77;;;14.47;;
18973;SDS011;9621;48.690;9.466;2023-04-06T05:13:01;24.93;;;14.33;;
18973;SDS011;9621;48.690;9.466;2023-04-06T05:15:28;20.53;;;13.23;;
18973;SDS011;9621;48.690;9.466;2023-04-06T05:17:55;21.20;;;14.27;;
18973;SDS011;9621;48.690;9.466;2023-04-06T05:20:22;21.60;;;14.27;;
18973;SDS011;9621;48.690;9.466;2023-04-06T05:22:49;20.13;;;13.33;;
18973;SDS011;9621;48.690;9.466;2023-04-06T05:25:17;20.23;;;13.30;;
18973;SDS011;9621;48.690;9.466;2023-04-06T05:27:45;19.37;;;13.43;;
18973;SDS011;9621;48.690;9.466;2023-04-06T05:30:12;21.13;;;13.73;;
18973;SDS011;9621;48.690;9.466;2023-04-06T05:32:40;22.53;;;14.00;;
18973;SDS011;9621;48.690;9.466;2023-04-06T05:35:08;22.47;;;14.17;;
18973;SDS011;9621;48.690;9.466;2023-04-06T05:37:35;19.73;;;14.30;;
18973;SDS011;9621;48.690;9.466;2023-04-06T05:40:03;21.57;;;14.10;;
18973;SDS011;9621;48.690;9.466;2023-04-06T05:42:36;19.67;;;12.83;;
18973;SDS011;9621;48.690;9.466;2023-04-06T05:45:04;21.47;;;13.90;;
18973;SDS011;9621;48.690;9.466;2023-04-06T05:47:32;21.87;;;13.57;;
18973;SDS011;9621;48.690;9.466;2023-04-06T05:49:59;18.80;;;12.40;;
18973;SDS011;9621;48.690;9.466;2023-04-06T05:52:26;18.33;;;12.10;;
18973;SDS011;9621;48.690;9.466;2023-04-06T05:54:53;18.13;;;12.97;;
18973;SDS011;9621;48.690;9.466;2023-04-06T05:57:20;17.33;;;11.03;;
18973;SDS011;9621;48.690;9.466;2023-04-06T05:59:49;16.77;;;11.43;;
18973;SDS011;9621;48.690;9.466;2023-04-06T06:02:16;17.57;;;11.30;;
18973;SDS011;9621;48.690;9.466;2023-04-06T06:04:43;17.43;;;10.27;;
18973;SDS011;9621;48.690;9.466;2023-04-06T06:07:10;16.13;;;10.60;;
18973;SDS011;9621;48.690;9.466;2023-04-06T06:09:37;16.00;;;10.87;;
18973;SDS011;9621;48.690;9.466;2023-04-06T06:12:03;15.53;;;10.73;;
18973;SDS011;9621;48.690;9.466;2023-04-06T06:14:30;15.40;;;10.80;;
18973;SDS011;9621;48.690;9.466;2023-04-06T06:16:59;13.77;;;10.33;;
18973;SDS011;9621;48.690;9.466;2023-04-06T06:19:26;21.27;;;10.70;;
18973;SDS011;9621;48.690;9.466;2023-04-06T06:21:53;19.23;;;10.83;;
18973;SDS011;9621;48.690;9.466;2023-04-06T06:24:20;20.27;;;11.47;;
18973;SDS011;9621;48.690;9.466;2023-04-06T06:26:47;15.37;;;10.70;;
18973;SDS011;9621;48.690;9.466;2023-04-06T06:29:14;18.80;;;10.30;;
18973;SDS011;9621;48.690;9.466;2023-04-06T06:31:41;14.30;;;10.07;;
18973;SDS011;9621;48.690;9.466;2023-04-06T06:34:10;18.93;;;10.33;;
18973;SDS011;9621;48.690;9.466;2023-04-06T06:36:37;17.33;;;11.13;;
18973;SDS011;9621;48.690;9.466;2023-04-06T06:39:05;16.90;;;10.40;;
18973;SDS011;9621;48.690;9.466;2023-04-06T06:41:32;16.67;;;10.40;;
18973;SDS011;9621;48.690;9.466;2023-04-06T06:43:58;15.90;;;10.20;;
18973;SDS011;9621;48.690;9.466;2023-04-06T06:46:26;15.80;;;10.17;;
18973;SDS011;9621;48.690;9.466;2023-04-06T06:48:53;14.97;;;10.03;;
18973;SDS011;9621;48.690;9.466;2023-04-06T06:51:21;14.13;;;9.93;;
18973;SDS011;9621;48.690;9.466;2023-04-06T06:53:48;17.67;;;9.67;;
18973;SDS011;9621;48.690;9.466;2023-04-06T06:56:15;19.30;;;10.75;;
18973;SDS011;9621;48.690;9.466;2023-04-06T06:58:42;14.25;;;9.82;;
18973;SDS011;9621;48.690;9.466;2023-04-06T07:01:10;15.20;;;10.52;;
18973;SDS011;9621;48.690;9.466;2023-04-06T07:03:38;13.68;;;10.40;;
18973;SDS011;9621;48.690;9.466;2023-04-06T07:06:05;17.48;;;10.80;;
18973;SDS011;9621;48.690;9.466;2023-04-06T07:08:33;14.32;;;10.20;;
18973;SDS011;9621;48.690;9.466;2023-04-06T07:11:01;18.17;;;10.63;;
18973;SDS011;9621;48.690;9.466;2023-04-06T07:13:28;15.82;;;10.63;;
18973;SDS011;9621;48.690;9.466;2023-04-06T07:15:55;16.02;;;10.80;;
18973;SDS011;9621;48.690;9.466;2023-04-06T07:18:23;14.57;;;10.30;;
18973;SDS011;9621;48.690;9.466;2023-04-06T07:20:50;13.18;;;9.68;;
18973;SDS011;9621;48.690;9.466;2023-04-06T07:23:17;15.35;;;9.43;;
18973;SDS011;9621;48.690;9.466;2023-04-06T07:25:46;15.38;;;10.23;;
18973;SDS011;9621;48.690;9.466;2023-04-06T07:28:16;14.50;;;10.07;;
18973;SDS011;9621;48.690;9.466;2023-04-06T07:30:43;13.70;;;9.88;;
18973;SDS011;9621;48.690;9.466;2023-04-06T07:33:10;15.05;;;9.75;;
18973;SDS011;9621;48.690;9.466;2023-04-06T07:35:37;13.35;;;9.18;;
18973;SDS011;9621;48.690;9.466;2023-04-06T07:38:05;14.68;;;9.82;;
18973;SDS011;9621;48.690;9.466;2023-04-06T07:40:32;15.95;;;10.45;;
18973;SDS011;9621;48.690;9.466;2023-04-06T07:43:00;13.20;;;9.60;;
18973;SDS011;9621;48.690;9.466;2023-04-06T07:45:30;17.98;;;10.43;;
18973;SDS011;9621;48.690;9.466;2023-04-06T07:47:57;16.85;;;10.38;;
18973;SDS011;9621;48.690;9.466;2023-04-06T07:50:24;14.80;;;9.93;;
18973;SDS011;9621;48.690;9.466;2023-04-06T07:52:51;14.30;;;9.98;;
18973;SDS011;9621;48.690;9.466;2023-04-06T07:55:18;16.98;;;9.93;;
18973;SDS011;9621;48.690;9.466;2023-04-06T07:57:46;14.40;;;10.02;;
18973;SDS011;9621;48.690;9.466;2023-04-06T08:00:14;16.80;;;10.50;;
18973;SDS011;9621;48.690;9.466;2023-04-06T08:02:42;15.02;;;9.90;;
18973;SDS011;9621;48.690;9.466;2023-04-06T08:05:09;16.15;;;9.93;;
18973;SDS011;9621;48.690;9.466;2023-04-06T08:07:36;12.25;;;9.07;;
18973;SDS011;9621;48.690;9.466;2023-04-06T08:10:03;16.65;;;10.40;;
18973;SDS011;9621;48.690;9.466;2023-04-06T08:12:31;14.82;;;9.80;;
18973;SDS011;9621;48.690;9.466;2023-04-06T08:14:59;13.35;;;9.50;;
18973;SDS011;9621;48.690;9.466;2023-04-06T08:17:28;13.77;;;9.90;;
18973;SDS011;9621;48.690;9.466;2023-04-06T08:19:56;13.43;;;9.70;;
18973;SDS011;9621;48.690;9.466;2023-04-06T08:22:23;13.20;;;9.50;;
18973;SDS011;9621;48.690;9.466;2023-04-06T08:24:50;16.02;;;9.82;;
18973;SDS011;9621;48.690;9.466;2023-04-06T08:27:17;16.10;;;9.57;;
18973;SDS011;9621;48.690;9.466;2023-04-06T08:29:44;13.98;;;9.93;;
18973;SDS011;9621;48.690;9.466;2023-04-06T08:32:11;13.80;;;9.65;;
18973;SDS011;9621;48.690;9.466;2023-04-06T08:34:40;13.85;;;9.85;;
18973;SDS011;9621;48.690;9.466;2023-04-06T08:37:07;13.15;;;9.60;;
18973;SDS011;9621;48.690;9.466;2023-04-06T08:39:34;13.82;;;9.43;;
18973;SDS011;9621;48.690;9.466;2023-04-06T08:42:01;14.52;;;9.25;;
18973;SDS011;9621;48.690;9.466;2023-04-06T08:44:29;13.02;;;9.60;;
18973;SDS011;9621;48.690;9.466;2023-04-06T08:46:57;13.50;;;10.18;;
18973;SDS011;9621;48.690;9.466;2023-04-06T08:49:26;15.18;;;9.60;;
18973;SDS011;9621;48.690;9.466;2023-04-06T08:51:55;13.20;;;9.57;;
18973;SDS011;9621;48.690;9.466;2023-04-06T08:54:23;12.40;;;9.18;;
18973;SDS011;9621;48.690;9.466;2023-04-06T08:56:50;12.55;;;9.63;;
18973;SDS011;9621;48.690;9.466;2023-04-06T08:59:18;15.60;;;9.07;;
18973;SDS011;9621;48.690;9.466;2023-04-06T09:01:45;12.15;;;9.27;;
18973;SDS011;9621;48.690;9.466;2023-04-06T09:04:13;17.17;;;10.07;;
18973;SDS011;9621;48.690;9.466;2023-04-06T09:06:40;12.93;;;9.38;;
18973;SDS011;9621;48.690;9.466;2023-04-06T09:09:09;14.70;;;9.95;;
18973;SDS011;9621;48.690;9.466;2023-04-06T09:11:43;12.07;;;9.13;;
18973;SDS011;9621;48.690;9.466;2023-04-06T09:14:11;13.25;;;9.57;;
18973;SDS011;9621;48.690;9.466;2023-04-06T09:16:38;13.50;;;9.48;;
18973;SDS011;9621;48.690;9.466;2023-04-06T09:19:06;13.60;;;9.48;;
18973;SDS011;9621;48.690;9.466;2023-04-06T09:21:34;11.45;;;8.43;;
18973;SDS011;9621;48.690;9.466;2023-04-06T09:24:02;13.38;;;8.45;;
18973;SDS011;9621;48.690;9.466;2023-04-06T09:26:31;13.70;;;8.98;;
18973;SDS011;9621;48.690;9.466;2023-04-06T09:29:00;11.13;;;8.57;;
18973;SDS011;9621;48.690;9.466;2023-04-06T09:31:29;13.10;;;9.82;;
18973;SDS011;9621;48.690;9.466;2023-04-06T09:33:58;13.43;;;8.52;;
18973;SDS011;9621;48.690;9.466;2023-04-06T09:36:31;15.63;;;9.75;;
18973;SDS011;9621;48.690;9.466;2023-04-06T09:39:00;14.80;;;9.55;;
18973;SDS011;9621;48.690;9.466;2023-04-06T09:41:29;15.10;;;9.63;;
18973;SDS011;9621;48.690;9.466;2023-04-06T09:44:05;15.73;;;9.57;;
18973;SDS011;9621;48.690;9.466;2023-04-06T09:46:33;13.73;;;9.15;;
18973;SDS011;9621;48.690;9.466;2023-04-06T09:49:03;13.63;;;9.35;;
18973;SDS011;9621;48.690;9.466;2023-04-06T09:51:31;15.95;;;9.85;;
18973;SDS011;9621;48.690;9.466;2023-04-06T09:54:02;18.25;;;9.07;;
18973;SDS011;9621;48.690;9.466;2023-04-06T09:56:31;12.27;;;8.63;;
18973;SDS011;9621;48.690;9.466;2023-04-06T09:59:08;12.00;;;8.30;;
18973;SDS011;9621;48.690;9.466;2023-04-06T10:01:37;12.85;;;7.85;;
18973;SDS011;9621;48.690;9.466;2023-04-06T10:04:07;11.18;;;7.82;;
18973;SDS011;9621;48.690;9.466;2023-04-06T10:06:44;9.57;;;6.82;;
18973;SDS011;9621;48.690;9.466;2023-04-06T10:09:13;8.77;;;5.75;;
18973;SDS011;9621;48.690;9.466;2023-04-06T10:11:41;7.28;;;4.82;;
18973;SDS011;9621;48.690;9.466;2023-04-06T10:14:10;6.82;;;5.40;;
18973;SDS011;9621;48.690;9.466;2023-04-06T10:16:37;8.90;;;6.38;;
18973;SDS011;9621;48.690;9.466;2023-04-06T10:19:06;11.23;;;6.95;;
18973;SDS011;9621;48.690;9.466;2023-04-06T10:21:39;9.07;;;6.78;;
18973;SDS011;9621;48.690;9.466;2023-04-06T10:24:08;9.98;;;6.95;;
18973;SDS011;9621;48.690;9.466;2023-04-06T10:26:37;9.32;;;6.28;;
18973;SDS011;9621;48.690;9.466;2023-04-06T10:29:05;9.05;;;6.68;;
18973;SDS011;9621;48.690;9.466;2023-04-06T10:31:39;11.05;;;7.38;;
18973;SDS011;9621;48.690;9.466;2023-04-06T10:34:09;11.88;;;6.65;;
18973;SDS011;9621;48.690;9.466;2023-04-06T10:36:36;11.35;;;6.72;;
18973;SDS011;9621;48.690;9.466;2023-04-06T10:39:04;9.55;;;6.65;;
18973;SDS011;9621;48.690;9.466;2023-04-06T10:41:32;12.50;;;7.00;;
18973;SDS011;9621;48.690;9.466;2023-04-06T10:44:00;8.38;;;6.13;;
18973;SDS011;9621;48.690;9.466;2023-04-06T10:46:28;13.35;;;6.95;;
18973;SDS011;9621;48.690;9.466;2023-04-06T10:48:57;9.43;;;6.18;;
18973;SDS011;9621;48.690;9.466;2023-04-06T10:51:26;11.07;;;6.50;;
18973;SDS011;9621;48.690;9.466;2023-04-06T10:53:55;11.68;;;6.38;;
18973;SDS011;9621;48.690;9.466;2023-04-06T10:56:23;11.40;;;7.00;;
18973;SDS011;9621;48.690;9.466;2023-04-06T10:58:53;10.45;;;6.82;;
18973;SDS011;9621;48.690;9.466;2023-04-06T11:01:22;9.73;;;6.38;;
18973;SDS011;9621;48.690;9.466;2023-04-06T11:03:50;9.13;;;6.47;;
18973;SDS011;9621;48.690;9.466;2023-04-06T11:06:20;10.38;;;6.43;;
18973;SDS011;9621;48.690;9.466;2023-04-06T11:08:48;9.77;;;6.78;;
18973;SDS011;9621;48.690;9.466;2023-04-06T11:11:16;11.90;;;6.28;;
18973;SDS011;9621;48.690;9.466;2023-04-06T11:13:44;8.60;;;5.93;;
18973;SDS011;9621;48.690;9.466;2023-04-06T11:16:15;8.50;;;6.13;;
18973;SDS011;9621;48.690;9.466;2023-04-06T11:18:50;10.32;;;7.18;;
18973;SDS011;9621;48.690;9.466;2023-04-06T11:21:20;9.13;;;6.25;;
18973;SDS011;9621;48.690;9.466;2023-04-06T11:24:03;8.13;;;6.22;;
18973;SDS011;9621;48.690;9.466;2023-04-06T11:26:36;8.93;;;6.43;;
18973;SDS011;9621;48.690;9.466;2023-04-06T11:29:03;9.05;;;6.20;;
18973;SDS011;9621;48.690;9.466;2023-04-06T11:31:31;11.95;;;7.10;;
18973;SDS011;9621;48.690;9.466;2023-04-06T11:34:08;11.88;;;6.47;;
18973;SDS011;9621;48.690;9.466;2023-04-06T11:36:37;9.77;;;6.43;;
18973;SDS011;9621;48.690;9.466;2023-04-06T11:39:07;10.40;;;6.63;;
18973;SDS011;9621;48.690;9.466;2023-04-06T11:41:35;9.93;;;6.82;;
18973;SDS011;9621;48.690;9.466;2023-04-06T11:44:02;9.38;;;7.05;;
18973;SDS011;9621;48.690;9.466;2023-04-06T11:46:29;9.65;;;6.45;;
18973;SDS011;9621;48.690;9.466;2023-04-06T11:48:57;9.10;;;6.10;;
18973;SDS011;9621;48.690;9.466;2023-04-06T11:51:25;8.77;;;6.07;;
18973;SDS011;9621;48.690;9.466;2023-04-06T11:53:54;9.77;;;6.35;;
18973;SDS011;9621;48.690;9.466;2023-04-06T11:56:25;9.00;;;6.47;;
18973;SDS011;9621;48.690;9.466;2023-04-06T11:58:54;8.63;;;5.50;;
18973;SDS011;9621;48.690;9.466;2023-04-06T12:01:21;6.90;;;5.03;;
18973;SDS011;9621;48.690;9.466;2023-04-06T12:03:49;7.47;;;5.05;;
18973;SDS011;9621;48.690;9.466;2023-04-06T12:06:16;10.45;;;5.25;;
18973;SDS011;9621;48.690;9.466;2023-04-06T12:08:43;8.30;;;5.70;;
18973;SDS011;9621;48.690;9.466;2023-04-06T12:11:12;7.13;;;5.15;;
18973;SDS011;9621;48.690;9.466;2023-04-06T12:13:39;8.27;;;5.60;;
18973;SDS011;9621;48.690;9.466;2023-04-06T12:16:06;7.72;;;5.05;;
18973;SDS011;9621;48.690;9.466;2023-04-06T12:18:34;8.23;;;4.47;;
18973;SDS011;9621;48.690;9.466;2023-04-06T12:21:01;5.80;;;4.72;;
18973;SDS011;9621;48.690;9.466;2023-04-06T12:23:28;6.80;;;4.22;;
18973;SDS011;9621;48.690;9.466;2023-04-06T12:25:55;6.15;;;4.30;;
18973;SDS011;9621;48.690;9.466;2023-04-06T12:28:23;7.53;;;4.93;;
18973;SDS011;9621;48.690;9.466;2023-04-06T12:30:53;9.27;;;5.75;;
18973;SDS011;9621;48.690;9.466;2023-04-06T12:33:21;6.82;;;4.57;;
18973;SDS011;9621;48.690;9.466;2023-04-06T12:35:48;7.47;;;4.63;;
18973;SDS011;9621;48.690;9.466;2023-04-06T12:38:15;7.97;;;5.35;;
18973;SDS011;9621;48.690;9.466;2023-04-06T12:40:42;7.40;;;5.10;;
18973;SDS011;9621;48.690;9.466;2023-04-06T12:43:09;8.00;;;4.82;;
18973;SDS011;9621;48.690;9.466;2023-04-06T12:45:39;9.07;;;4.75;;
18973;SDS011;9621;48.690;9.466;2023-04-06T12:48:06;7.90;;;5.53;;
18973;SDS011;9621;48.690;9.466;2023-04-06T12:50:33;6.97;;;5.30;;
18973;SDS011;9621;48.690;9.466;2023-04-06T12:53:01;8.32;;;5.68;;
18973;SDS011;9621;48.690;9.466;2023-04-06T12:55:29;7.85;;;5.75;;
18973;SDS011;9621;48.690;9.466;2023-04-06T12:57:59;8.02;;;4.90;;
18973;SDS011;9621;48.690;9.466;2023-04-06T13:00:26;9.57;;;5.38;;
18973;SDS011;9621;48.690;9.466;2023-04-06T13:02:55;8.20;;;5.32;;
18973;SDS011;9621;48.690;9.466;2023-04-06T13:05:22;7.03;;;4.72;;
18973;SDS011;9621;48.690;9.466;2023-04-06T13:07:49;7.38;;;5.50;;
18973;SDS011;9621;48.690;9.466;2023-04-06T13:10:16;11.18;;;5.65;;
18973;SDS011;9621;48.690;9.466;2023-04-06T13:12:43;8.93;;;4.95;;
18973;SDS011;9621;48.690;9.466;2023-04-06T13:15:10;8.32;;;5.32;;
18973;SDS011;9621;48.690;9.466;2023-04-06T13:17:37;7.43;;;5.32;;
18973;SDS011;9621;48.690;9.466;2023-04-06T13:20:06;7.03;;;4.85;;
18973;SDS011;9621;48.690;9.466;2023-04-06T13:22:34;7.35;;;4.93;;
18973;SDS011;9621;48.690;9.466;2023-04-06T13:25:01;6.15;;;5.03;;
18973;SDS011;9621;48.690;9.466;2023-04-06T13:27:28;8.98;;;5.20;;
18973;SDS011;9621;48.690;9.466;2023-04-06T13:29:58;7.18;;;5.00;;
18973;SDS011;9621;48.690;9.466;2023-04-06T13:32:25;7.03;;;4.35;;
18973;SDS011;9621;48.690;9.466;2023-04-06T13:34:54;6.85;;;4.85;;
18973;SDS011;9621;48.690;9.466;2023-04-06T13:37:22;7.72;;;4.55;;
18973;SDS011;9621;48.690;9.466;2023-04-06T13:39:49;9.35;;;4.90;;
18973;SDS011;9621;48.690;9.466;2023-04-06T13:42:16;5.53;;;4.18;;
18973;SDS011;9621;48.690;9.466;2023-04-06T13:44:43;8.10;;;4.60;;
18973;SDS011;9621;48.690;9.466;2023-04-06T13:47:11;7.95;;;4.70;;
18973;SDS011;9621;48.690;9.466;2023-04-06T13:49:38;7.90;;;4.55;;
18973;SDS011;9621;48.690;9.466;2023-04-06T13:52:05;4.57;;;3.85;;
18973;SDS011;9621;48.690;9.466;2023-04-06T13:54:34;7.60;;;4.75;;
18973;SDS011;9621;48.690;9.466;2023-04-06T13:57:01;5.40;;;3.88;;
18973;SDS011;9621;48.690;9.466;2023-04-06T13:59:31;5.53;;;3.90;;
18973;SDS011;9621;48.690;9.466;2023-04-06T14:01:58;7.78;;;4.50;;
18973;SDS011;9621;48.690;9.466;2023-04-06T14:04:25;5.32;;;3.65;;
18973;SDS011;9621;48.690;9.466;2023-04-06T14:06:52;7.47;;;3.67;;
18973;SDS011;9621;48.690;9.466;2023-04-06T14:09:19;7.43;;;3.90;;
18973;SDS011;9621;48.690;9.466;2023-04-06T14:11:47;9.15;;;4.10;;
18973;SDS011;9621;48.690;9.466;2023-04-06T14:14:14;6.32;;;3.88;;
18973;SDS011;9621;48.690;9.466;2023-04-06T14:16:41;4.85;;;3.60;;
18973;SDS011;9621;48.690;9.466;2023-04-06T14:19:09;5.53;;;3.90;;
18973;SDS011;9621;48.690;9.466;2023-04-06T14:21:36;5.38;;;3.10;;
18973;SDS011;9621;48.690;9.466;2023-04-06T14:24:04;4.15;;;3.20;;
18973;SDS011;9621;48.690;9.466;2023-04-06T14:26:32;7.60;;;4.22;;
18973;SDS011;9621;48.690;9.466;2023-04-06T14:29:01;6.28;;;4.47;;
18973;SDS011;9621;48.690;9.466;2023-04-06T14:31:28;6.22;;;4.45;;
18973;SDS011;9621;48.690;9.466;2023-04-06T14:33:55;6.80;;;4.55;;
18973;SDS011;9621;48.690;9.466;2023-04-06T14:36:21;6.25;;;4.20;;
18973;SDS011;9621;48.690;9.466;2023-04-06T14:38:49;4.72;;;3.53;;
18973;SDS011;9621;48.690;9.466;2023-04-06T14:41:17;5.93;;;3.78;;
18973;SDS011;9621;48.690;9.466;2023-04-06T14:43:45;4.97;;;3.40;;
18973;SDS011;9621;48.690;9.466;2023-04-06T14:46:14;5.43;;;3.35;;
18973;SDS011;9621;48.690;9.466;2023-04-06T14:48:41;5.15;;;3.10;;